Time;durP1;ratioP1;P1;durP2;ratioP2;P2;SDS_P1;SDS_P2;PMS_P1;PMS_P2;Temp;Humidity;BMP_temperature;BMP_pressure;BME280_temperature;BME280_humidity;BME280_pressure;Samples;Min_cycle;Max_cycle;Signal;HPM_P1;HPM_P2
2024/02/04 00:00:25;0.00;0.00;0.62;0.00;0.00;0.62;;;;;10.90;1.00;;;;;;2272359;61;2000;-87
2024/02/04 00:05:22;64033.00;0.21;111.45;0.00;0.00;0.62;;;;;10.40;1.00;;;;;;2262415;61;1406;-88
2024/02/04 00:07:49;282297.00;0.94;487.49;81181.00;0.27;141.08;;;;;10.80;1.00;;;;;;2260499;61;995;-89
2024/02/04 00:10:18;272171.00;0.91;470.08;94413.00;0.31;163.93;;;;;11.10;1.00;;;;;;2260306;61;1686;-90
2024/02/04 00:12:45;216991.00;0.72;375.17;88972.00;0.30;154.53;;;;;11.00;1.00;;;;;;2260291;61;1628;-87
2024/02/04 00:15:12;200312.00;0.67;346.46;90709.00;0.30;157.53;;;;;10.60;1.00;;;;;;2260428;61;952;-87
2024/02/04 00:20:10;236562.00;0.79;408.84;90727.00;0.30;157.56;;;;;10.60;1.00;;;;;;2269899;61;1883;-87
2024/02/04 00:22:39;248966.00;0.83;430.17;90372.00;0.30;156.95;;;;;10.70;1.00;;;;;;2268353;61;1756;-87
2024/02/04 00:25:06;212733.00;0.71;367.84;90793.00;0.30;157.68;;;;;10.80;1.00;;;;;;2268137;61;1765;-87
2024/02/04 00:27:33;200308.00;0.67;346.45;86505.00;0.29;150.27;;;;;10.60;1.00;;;;;;2268373;61;1116;-86
2024/02/04 00:30:00;203935.00;0.68;352.70;86873.00;0.29;150.91;;;;;10.60;1.00;;;;;;2268338;61;1602;-88
2024/02/04 00:34:54;207634.00;0.69;359.06;94377.00;0.31;163.86;;;;;10.10;1.00;;;;;;2270399;61;1372;-87
2024/02/04 00:37:21;317192.00;1.06;547.47;77132.00;0.26;134.08;;;;;10.30;1.00;;;;;;2268423;61;997;-87
2024/02/04 00:39:50;306518.00;1.02;529.12;85511.00;0.29;148.56;;;;;10.00;1.00;;;;;;2268367;61;1919;-88
2024/02/04 00:42:16;203315.00;0.68;351.63;89029.00;0.30;154.63;;;;;10.20;1.00;;;;;;2268357;61;1364;-89
2024/02/04 00:44:43;207294.00;0.69;358.48;88880.00;0.30;154.37;;;;;10.30;1.00;;;;;;2268217;61;1558;-87
2024/02/04 00:47:10;174980.00;0.58;302.84;89693.00;0.30;155.78;;;;;10.20;1.00;;;;;;2268412;61;1009;-87
2024/02/04 00:49:37;216323.00;0.72;374.02;99979.00;0.33;173.54;;;;;10.10;1.00;;;;;;2268264;61;1707;-89
2024/02/04 00:52:05;244733.00;0.82;422.89;92206.00;0.31;160.12;;;;;10.30;1.00;;;;;;2268347;61;1409;-88
2024/02/04 00:54:32;272184.00;0.91;470.10;83461.00;0.28;145.02;;;;;10.20;1.00;;;;;;2268261;61;1710;-87
2024/02/04 00:57:00;179120.00;0.60;309.97;88260.00;0.29;153.30;;;;;10.10;1.00;;;;;;2268299;61;918;-87
2024/02/04 00:59:27;257152.00;0.86;444.25;91570.00;0.31;159.02;;;;;10.10;1.00;;;;;;2268368;61;1568;-88
2024/02/04 01:06:49;237640.00;0.79;410.69;75996.00;0.25;132.12;;;;;10.40;1.00;;;;;;2269951;61;1421;-86
2024/02/04 01:09:16;269761.00;0.90;465.93;79679.00;0.27;138.48;;;;;10.60;1.00;;;;;;2268100;61;1772;-88
2024/02/04 01:11:43;298291.00;0.99;514.98;88304.00;0.29;153.38;;;;;10.70;1.00;;;;;;2268187;61;1378;-86
2024/02/04 01:16:44;329742.00;1.10;569.04;86191.00;0.29;149.73;;;;;10.30;1.00;;;;;;2269987;61;1404;-87
2024/02/04 01:19:10;412519.00;1.38;711.33;89729.00;0.30;155.84;;;;;10.30;1.00;;;;;;2268241;61;1625;-87
2024/02/04 01:21:37;117225296.00;390.75;65251544.00;93084.00;0.31;161.63;;;;;10.50;1.00;;;;;;2268253;61;2006;-88
2024/02/04 01:24:05;397868.00;1.33;686.14;95106.00;0.32;165.12;;;;;10.50;1.00;;;;;;2268403;61;1033;-89
2024/02/04 01:26:32;313598.00;1.05;541.29;89121.00;0.30;154.79;;;;;10.40;1.00;;;;;;2268199;61;1551;-88
2024/02/04 01:28:58;304269.00;1.01;525.26;88773.00;0.30;154.19;;;;;10.50;1.00;;;;;;2268063;61;1045;-88
2024/02/04 01:31:28;411855.00;1.37;710.19;90702.00;0.30;157.52;;;;;10.30;1.00;;;;;;2268235;61;1665;-87
2024/02/04 01:33:58;310122.00;1.03;535.32;88883.00;0.30;154.38;;;;;10.20;1.00;;;;;;2268092;61;1523;-88
2024/02/04 01:36:25;349030.00;1.16;602.19;82438.00;0.27;143.25;;;;;9.90;1.00;;;;;;2268751;61;955;-89
2024/02/04 01:38:51;451781.00;1.51;778.85;135393.00;0.45;234.63;;;;;9.60;1.00;;;;;;2268916;61;1632;-89
2024/02/04 01:41:18;419878.00;1.40;723.98;91415.00;0.30;158.75;;;;;9.50;1.00;;;;;;2268929;61;1923;-87
2024/02/04 01:43:45;329229.00;1.10;568.16;89305.00;0.30;155.11;;;;;9.40;1.00;;;;;;2268860;61;1291;-89
2024/02/04 01:46:13;335983.00;1.12;579.77;91306.00;0.30;158.56;;;;;9.50;1.00;;;;;;2268906;61;1210;-87
2024/02/04 01:48:40;343741.00;1.15;593.10;89244.00;0.30;155.00;;;;;9.50;1.00;;;;;;2280218;40;3607;-87
2024/02/04 01:51:09;474704.00;1.58;818.28;93012.00;0.31;161.51;;;;;9.40;1.00;;;;;;2272862;61;1001;-88
2024/02/04 01:53:39;380730.00;1.27;656.68;93526.00;0.31;162.40;;;;;9.50;1.00;;;;;;2272869;61;1285;-88
2024/02/04 01:58:36;747776.00;2.49;1290.19;81192.00;0.27;141.10;;;;;9.60;1.00;;;;;;2262497;61;1297;-89
2024/02/04 02:01:03;654249.00;2.18;1127.99;90312.00;0.30;156.85;;;;;9.90;1.00;;;;;;2260888;61;1915;-87
2024/02/04 02:03:32;565072.00;1.88;973.95;90269.00;0.30;156.77;;;;;9.90;1.00;;;;;;2260722;61;1298;-89
2024/02/04 02:06:00;614987.00;2.05;1060.10;81613.00;0.27;141.82;;;;;9.80;1.00;;;;;;2260839;61;1730;-87
2024/02/04 02:11:04;423610.00;1.41;730.40;117401.00;0.39;203.60;;;;;10.10;1.00;;;;;;2271014;61;2042;-88
2024/02/04 02:13:35;428823.00;1.43;739.36;89086.00;0.30;154.73;;;;;10.30;1.00;;;;;;2268833;61;1781;-89
2024/02/04 02:16:09;418196.00;1.39;721.09;97330.00;0.32;168.96;;;;;10.40;1.00;;;;;;2268887;61;1727;-88
2024/02/04 02:18:43;508379.00;1.69;876.25;92122.00;0.31;159.97;;;;;10.60;1.00;;;;;;2268698;61;947;-88
2024/02/04 02:21:28;247947.00;0.83;428.42;0.00;0.00;0.62;;;;;9.90;1.00;;;;;;2268658;61;2005;-87
2024/02/04 02:24:04;269799.00;0.90;466.00;0.00;0.00;0.62;;;;;9.60;1.00;;;;;;2268805;61;1368;-89
2024/02/04 02:27:15;256477.00;0.85;443.09;0.00;0.00;0.62;;;;;9.80;1.00;;;;;;2268768;61;1659;-87
2024/02/04 02:29:43;112831.00;0.38;195.71;0.00;0.00;0.62;;;;;9.80;1.00;;;;;;2268752;61;1715;-89
2024/02/04 02:32:10;31834.00;0.11;55.76;0.00;0.00;0.62;;;;;9.50;1.00;;;;;;2268746;61;1397;-89
2024/02/04 02:34:37;0.00;0.00;0.62;0.00;0.00;0.62;;;;;9.70;1.00;;;;;;2268711;61;1526;-87
2024/02/04 02:37:12;46982.00;0.16;81.97;0.00;0.00;0.62;;;;;9.90;1.00;;;;;;2268858;61;918;-88
2024/02/04 02:39:46;7113.00;0.02;12.95;0.00;0.00;0.62;;;;;9.90;1.00;;;;;;2268751;61;2215;-86
2024/02/04 02:42:14;78680.00;0.26;136.76;0.00;0.00;0.62;;;;;9.80;1.00;;;;;;2268716;61;1993;-88
2024/02/04 02:44:44;48494.00;0.16;84.58;0.00;0.00;0.62;;;;;9.60;1.00;;;;;;2268722;61;1008;-88
2024/02/04 02:47:12;16817.00;0.06;29.76;0.00;0.00;0.62;;;;;9.60;1.00;;;;;;2268648;61;1070;-88
2024/02/04 02:49:39;106895.00;0.36;185.47;0.00;0.00;0.62;;;;;9.70;1.00;;;;;;2268789;61;1035;-88
2024/02/04 02:54:35;63276.00;0.21;110.14;0.00;0.00;0.62;;;;;9.80;1.00;;;;;;2266597;61;1425;-87
2024/02/04 02:57:02;51199.00;0.17;89.26;0.00;0.00;0.62;;;;;9.40;1.00;;;;;;2264463;61;1470;-89
2024/02/04 02:59:29;91055.00;0.30;158.13;0.00;0.00;0.62;;;;;9.50;1.00;;;;;;2264725;61;1634;-88
2024/02/04 03:04:26;185182.00;0.62;320.41;0.00;0.00;0.62;;;;;9.70;1.00;;;;;;1890655;56;3580;-90
2024/02/04 03:06:53;10643.00;0.04;19.06;0.00;0.00;0.62;;;;;9.90;1.00;;;;;;2272754;61;986;-87
2024/02/04 03:09:20;0.00;0.00;0.62;0.00;0.00;0.62;;;;;9.90;1.00;;;;;;2272624;61;1758;-87
2024/02/04 03:11:47;30750.00;0.10;53.88;0.00;0.00;0.62;;;;;9.80;1.00;;;;;;2272697;61;1365;-87
2024/02/04 03:14:16;226181.00;0.75;390.98;83505.00;0.28;145.09;;;;;9.70;1.00;;;;;;2272625;55;3801;-88
2024/02/04 03:16:45;67193.00;0.22;116.91;0.00;0.00;0.62;;;;;10.10;1.00;;;;;;2272730;61;1651;-86
2024/02/04 03:19:12;0.00;0.00;0.62;0.00;0.00;0.62;;;;;10.10;1.00;;;;;;2272700;61;1906;-87
2024/02/04 03:21:40;12617.00;0.04;22.48;0.00;0.00;0.62;;;;;10.30;1.00;;;;;;2272551;61;2005;-87
2024/02/04 03:24:07;0.00;0.00;0.62;0.00;0.00;0.62;;;;;10.40;1.00;;;;;;2272690;61;2321;-86
2024/02/04 03:26:34;26315.00;0.09;46.20;0.00;0.00;0.62;;;;;10.40;1.00;;;;;;2272519;61;1773;-87
2024/02/04 03:31:30;104364.00;0.35;181.10;0.00;0.00;0.62;;;;;10.20;1.00;;;;;;2266448;61;1457;-87
2024/02/04 03:33:57;44934.00;0.15;78.42;0.00;0.00;0.62;;;;;10.20;1.00;;;;;;2264470;61;2170;-88
2024/02/04 03:36:25;5041.00;0.02;9.36;0.00;0.00;0.62;;;;;10.50;1.00;;;;;;2264405;61;987;-88
2024/02/04 03:38:54;85180.00;0.28;147.98;0.00;0.00;0.62;;;;;10.40;1.00;;;;;;2281381;55;3794;-88
2024/02/04 03:41:20;48928.00;0.16;85.33;0.00;0.00;0.62;;;;;10.50;1.00;;;;;;2274374;40;3660;-89
2024/02/04 03:43:48;38787.00;0.13;67.79;0.00;0.00;0.62;;;;;10.50;1.00;;;;;;2272492;61;1584;-87
2024/02/04 03:46:15;14142.00;0.05;25.12;0.00;0.00;0.62;;;;;10.60;1.00;;;;;;2272550;61;1030;-88
2024/02/04 03:48:42;44111.00;0.15;77.00;0.00;0.00;0.62;;;;;10.30;1.00;;;;;;2272495;61;1584;-88
2024/02/04 03:51:09;8351.00;0.03;15.09;0.00;0.00;0.62;;;;;9.90;1.00;;;;;;2272678;61;1078;-89
2024/02/04 03:53:36;28829.00;0.10;50.56;0.00;0.00;0.62;;;;;9.60;1.00;;;;;;2272487;61;1395;-89
2024/02/04 03:56:04;39155.00;0.13;68.43;0.00;0.00;0.62;;;;;9.90;1.00;;;;;;2301652;56;3760;-89
2024/02/04 03:58:33;13792.00;0.05;24.52;0.00;0.00;0.62;;;;;10.00;1.00;;;;;;2272264;61;919;-86
2024/02/04 04:01:00;6625.00;0.02;12.10;0.00;0.00;0.62;;;;;10.10;1.00;;;;;;2272472;61;1907;-87
2024/02/04 04:03:27;15817.00;0.05;28.03;0.00;0.00;0.62;;;;;10.00;1.00;;;;;;2272648;61;1412;-88
2024/02/04 04:05:54;4731.00;0.02;8.82;0.00;0.00;0.62;;;;;9.80;1.00;;;;;;2272529;61;1608;-88
2024/02/04 04:08:21;174122.00;0.58;301.37;78885.00;0.26;137.11;;;;;9.70;1.00;;;;;;2272323;61;1063;-89
2024/02/04 04:10:48;21729.00;0.07;38.26;0.00;0.00;0.62;;;;;9.60;1.00;;;;;;2272454;61;1675;-87
2024/02/04 04:13:16;19000.00;0.06;33.54;0.00;0.00;0.62;;;;;9.70;1.00;;;;;;2272511;61;1415;-89
2024/02/04 04:15:43;21339.00;0.07;37.59;0.00;0.00;0.62;;;;;9.70;1.00;;;;;;2272514;61;1044;-88
2024/02/04 04:18:11;1774.00;0.01;3.69;0.00;0.00;0.62;;;;;9.80;1.00;;;;;;2272596;61;1163;-87
2024/02/04 04:20:38;860.00;0.00;2.11;0.00;0.00;0.62;;;;;9.80;1.00;;;;;;2272567;61;1153;-88
2024/02/04 04:23:05;24680.00;0.08;43.37;0.00;0.00;0.62;;;;;9.70;1.00;;;;;;2272386;61;1948;-86
2024/02/04 04:25:33;43508.00;0.15;75.96;0.00;0.00;0.62;;;;;10.10;1.00;;;;;;2272464;61;914;-86
2024/02/04 04:27:59;16114.00;0.05;28.54;0.00;0.00;0.62;;;;;10.50;1.00;;;;;;2272551;61;923;-86
2024/02/04 04:30:28;0.00;0.00;0.62;0.00;0.00;0.62;;;;;10.50;1.00;;;;;;2272356;61;1968;-87
2024/02/04 04:32:55;4804.00;0.02;8.95;0.00;0.00;0.62;;;;;10.20;1.00;;;;;;2272428;61;1402;-88
2024/02/04 04:35:22;0.00;0.00;0.62;0.00;0.00;0.62;;;;;10.20;1.00;;;;;;2272579;61;1084;-87
2024/02/04 04:37:49;57140.00;0.19;99.53;0.00;0.00;0.62;;;;;10.30;1.00;;;;;;2272539;61;1702;-88
2024/02/04 04:40:16;1035.00;0.00;2.41;0.00;0.00;0.62;;;;;10.50;1.00;;;;;;2272282;61;2222;-88
2024/02/04 04:42:43;61555.00;0.21;107.16;0.00;0.00;0.62;;;;;10.10;1.00;;;;;;2272384;61;2008;-88
2024/02/04 04:45:11;4220.00;0.01;7.93;0.00;0.00;0.62;;;;;10.10;1.00;;;;;;2272202;61;1727;-87
2024/02/04 04:47:39;3400.00;0.01;6.51;0.00;0.00;0.62;;;;;9.60;1.00;;;;;;2272442;61;1004;-88
2024/02/04 04:50:06;83557.00;0.28;145.18;0.00;0.00;0.62;;;;;9.60;1.00;;;;;;2272245;61;961;-87
2024/02/04 04:52:34;8022.00;0.03;14.52;0.00;0.00;0.62;;;;;9.60;1.00;;;;;;2272483;61;1386;-88
2024/02/04 04:55:00;19640.00;0.07;34.65;0.00;0.00;0.62;;;;;9.70;1.00;;;;;;2272479;61;1168;-89
2024/02/04 04:57:27;0.00;0.00;0.62;0.00;0.00;0.62;;;;;9.60;1.00;;;;;;2272337;61;1737;-89
2024/02/04 04:59:54;0.00;0.00;0.62;0.00;0.00;0.62;;;;;9.60;1.00;;;;;;2272274;61;1649;-90
2024/02/04 05:02:21;31765.00;0.11;55.64;0.00;0.00;0.62;;;;;9.70;1.00;;;;;;2272358;61;2002;-87
2024/02/04 05:04:49;16951.00;0.06;29.99;0.00;0.00;0.62;;;;;9.80;1.00;;;;;;2272316;61;1020;-87
2024/02/04 05:09:45;185315.00;0.62;320.64;0.00;0.00;0.62;;;;;9.40;1.00;;;;;;2262323;61;1406;-88
2024/02/04 05:12:12;23392.00;0.08;41.14;0.00;0.00;0.62;;;;;9.50;1.00;;;;;;2260298;61;1696;-88
2024/02/04 05:14:44;35878.00;0.12;62.76;0.00;0.00;0.62;;;;;10.00;1.00;;;;;;2260315;61;1139;-87
2024/02/04 05:17:12;6677.00;0.02;12.19;0.00;0.00;0.62;;;;;9.60;1.00;;;;;;2260214;61;955;-89
2024/02/04 05:19:41;134046.00;0.45;232.31;0.00;0.00;0.62;;;;;9.60;1.00;;;;;;2260337;61;1081;-87
2024/02/04 05:22:10;143694.00;0.48;248.94;0.00;0.00;0.62;;;;;9.60;1.00;;;;;;2260267;61;1926;-86
2024/02/04 05:24:36;57695.00;0.19;100.49;0.00;0.00;0.62;;;;;9.70;1.00;;;;;;2260211;61;1685;-88
2024/02/04 05:29:32;165252.00;0.55;286.09;0.00;0.00;0.62;;;;;9.30;1.00;;;;;;2269965;61;1324;-88
2024/02/04 05:31:59;9263.00;0.03;16.67;0.00;0.00;0.62;;;;;9.70;1.00;;;;;;2268199;61;1376;-88
2024/02/04 05:34:26;78977.00;0.26;137.27;0.00;0.00;0.62;;;;;9.80;1.00;;;;;;2272371;40;3609;-87
2024/02/04 05:39:23;38282.00;0.13;66.92;0.00;0.00;0.62;;;;;9.90;1.00;;;;;;2262157;61;1400;-87
2024/02/04 05:41:50;48620.00;0.16;84.80;0.00;0.00;0.62;;;;;10.00;1.00;;;;;;2260061;61;1925;-88
2024/02/04 05:46:46;331850.00;1.11;572.67;0.00;0.00;0.62;;;;;10.10;1.00;;;;;;2269763;61;1436;-87
2024/02/04 05:49:13;0.00;0.00;0.62;0.00;0.00;0.62;;;;;10.10;1.00;;;;;;2268232;61;1759;-88
2024/02/04 05:51:41;0.00;0.00;0.62;0.00;0.00;0.62;;;;;10.20;1.00;;;;;;2268024;61;1712;-87
2024/02/04 05:54:08;0.00;0.00;0.62;0.00;0.00;0.62;;;;;10.00;1.00;;;;;;2268193;61;1554;-87
2024/02/04 05:56:36;0.00;0.00;0.62;0.00;0.00;0.62;;;;;9.90;1.00;;;;;;2268153;61;945;-86
2024/02/04 05:59:04;171910.00;0.57;297.56;88293.00;0.29;153.36;;;;;10.10;1.00;;;;;;2268341;61;952;-87
2024/02/04 06:01:30;2297.00;0.01;4.60;0.00;0.00;0.62;;;;;10.20;1.00;;;;;;2268044;61;2005;-86
2024/02/04 06:03:57;81067.00;0.27;140.88;0.00;0.00;0.62;;;;;10.10;1.00;;;;;;2268036;61;1285;-87
2024/02/04 06:06:24;13623.00;0.05;24.23;0.00;0.00;0.62;;;;;9.90;1.00;;;;;;2270335;55;3722;-86
2024/02/04 06:08:52;0.00;0.00;0.62;0.00;0.00;0.62;;;;;9.90;1.00;;;;;;2272273;61;1205;-87
2024/02/04 06:16:16;147462.00;0.49;255.43;0.00;0.00;0.62;;;;;9.60;1.00;;;;;;2273796;61;1396;-88
2024/02/04 06:26:14;91280.00;0.30;158.52;0.00;0.00;0.62;;;;;10.10;1.00;;;;;;2266569;61;1393;-87
2024/02/04 06:38:38;201611.00;0.67;348.70;19466.00;0.06;34.35;;;;;10.00;1.00;;;;;;2270572;61;1403;-88
2024/02/04 06:41:05;25737.00;0.09;45.20;0.00;0.00;0.62;;;;;9.70;1.00;;;;;;2268780;61;950;-88
2024/02/04 06:43:32;122810.00;0.41;212.93;50604.00;0.17;88.23;;;;;9.80;1.00;;;;;;2268744;61;1936;-87
2024/02/04 06:48:28;220481.00;0.73;381.17;28813.00;0.10;50.53;;;;;10.30;1.00;;;;;;2271585;61;1179;-88
2024/02/04 06:50:55;63359.00;0.21;110.28;0.00;0.00;0.62;;;;;9.90;1.00;;;;;;2269441;61;1062;-88
2024/02/04 06:53:22;0.00;0.00;0.62;0.00;0.00;0.62;;;;;9.90;1.00;;;;;;2268558;61;1283;-87
2024/02/04 06:55:50;52573.00;0.18;91.64;0.00;0.00;0.62;;;;;9.70;1.00;;;;;;2268498;61;1039;-87
2024/02/04 07:05:42;89309.00;0.30;155.11;0.00;0.00;0.62;;;;;9.70;1.00;;;;;;2270908;61;1297;-90
2024/02/04 07:08:09;23544.00;0.08;41.41;0.00;0.00;0.62;;;;;9.50;1.00;;;;;;2268564;61;930;-88
2024/02/04 07:10:36;50454.00;0.17;87.97;0.00;0.00;0.62;;;;;9.40;1.00;;;;;;2268519;61;1762;-88
2024/02/04 07:13:04;10630.00;0.04;19.04;0.00;0.00;0.62;;;;;9.40;1.00;;;;;;2268388;61;1512;-88
2024/02/04 07:15:31;87716.00;0.29;152.36;0.00;0.00;0.62;;;;;9.60;1.00;;;;;;2268585;61;965;-89
2024/02/04 07:17:58;51779.00;0.17;90.26;0.00;0.00;0.62;;;;;9.80;1.00;;;;;;2268450;61;1103;-86
2024/02/04 07:20:25;43339.00;0.14;75.66;0.00;0.00;0.62;;;;;9.90;1.00;;;;;;2268524;61;1068;-88
2024/02/04 07:22:52;88187.00;0.29;153.18;0.00;0.00;0.62;;;;;9.80;1.00;;;;;;2268386;61;1915;-87
2024/02/04 07:25:20;22679.00;0.08;39.91;0.00;0.00;0.62;;;;;10.00;1.00;;;;;;2268619;61;999;-88
2024/02/04 07:27:47;13554.00;0.05;24.11;0.00;0.00;0.62;;;;;10.00;1.00;;;;;;2268536;61;1064;-86
2024/02/04 07:30:15;17400.00;0.06;30.77;0.00;0.00;0.62;;;;;10.20;1.00;;;;;;2268525;61;997;-87
2024/02/04 07:32:42;4885.00;0.02;9.09;0.00;0.00;0.62;;;;;10.40;1.00;;;;;;2268417;61;1621;-88
2024/02/04 07:35:09;113861.00;0.38;197.49;0.00;0.00;0.62;;;;;10.60;1.00;;;;;;2268579;61;1058;-87
2024/02/04 07:37:36;11657.00;0.04;20.82;0.00;0.00;0.62;;;;;10.40;1.00;;;;;;2268586;61;1475;-88
2024/02/04 07:40:05;13249.00;0.04;23.58;0.00;0.00;0.62;;;;;10.50;1.00;;;;;;2268544;61;1104;-87
2024/02/04 07:42:32;888.00;0.00;2.16;0.00;0.00;0.62;;;;;10.60;1.00;;;;;;2268389;61;2010;-87
2024/02/04 07:44:58;78852.00;0.26;137.05;0.00;0.00;0.62;;;;;10.80;1.00;;;;;;2268517;61;989;-87
2024/02/04 07:47:27;0.00;0.00;0.62;0.00;0.00;0.62;;;;;11.10;1.00;;;;;;2268383;61;964;-87
2024/02/04 07:49:54;0.00;0.00;0.62;0.00;0.00;0.62;;;;;11.30;1.00;;;;;;2268398;61;1130;-86
2024/02/04 07:52:20;0.00;0.00;0.62;0.00;0.00;0.62;;;;;10.90;1.00;;;;;;2268447;61;1705;-86
2024/02/04 07:54:47;4013.00;0.01;7.58;0.00;0.00;0.62;;;;;11.00;1.00;;;;;;2268464;61;1852;-89
2024/02/04 07:57:14;26803.00;0.09;47.05;0.00;0.00;0.62;;;;;10.90;1.00;;;;;;2268545;61;1006;-88
2024/02/04 07:59:41;10593.00;0.04;18.98;0.00;0.00;0.62;;;;;10.70;1.00;;;;;;2268524;61;982;-87
2024/02/04 08:02:08;62726.00;0.21;109.19;0.00;0.00;0.62;;;;;10.60;1.00;;;;;;2268487;61;2001;-87
2024/02/04 08:04:36;0.00;0.00;0.62;0.00;0.00;0.62;;;;;10.30;1.00;;;;;;2268296;61;1641;-87
2024/02/04 08:07:03;58862.00;0.20;102.51;0.00;0.00;0.62;;;;;10.50;1.00;;;;;;2268632;61;1084;-87
2024/02/04 08:09:30;24658.00;0.08;43.34;0.00;0.00;0.62;;;;;10.50;1.00;;;;;;2268517;61;1331;-89
2024/02/04 08:11:57;21993.00;0.07;38.72;0.00;0.00;0.62;;;;;10.60;1.00;;;;;;2268288;61;1596;-88
2024/02/04 08:14:24;37239.00;0.12;65.11;0.00;0.00;0.62;;;;;10.50;1.00;;;;;;2268357;61;1096;-86
2024/02/04 08:16:50;0.00;0.00;0.62;0.00;0.00;0.62;;;;;10.60;1.00;;;;;;2268492;61;1072;-86
2024/02/04 08:19:18;16901.00;0.06;29.90;0.00;0.00;0.62;;;;;10.50;1.00;;;;;;2268459;61;1004;-88
2024/02/04 08:21:47;30575.00;0.10;53.58;0.00;0.00;0.62;;;;;10.40;1.00;;;;;;2268260;61;1371;-89
2024/02/04 08:24:14;0.00;0.00;0.62;0.00;0.00;0.62;;;;;10.30;1.00;;;;;;2268327;61;2018;-85
2024/02/04 08:26:41;301490.00;1.00;520.48;104999.00;0.35;182.20;;;;;10.60;1.00;;;;;;2268411;61;1022;-86
2024/02/04 08:29:07;39379.00;0.13;68.81;0.00;0.00;0.62;;;;;10.60;1.00;;;;;;2268392;61;1006;-89
2024/02/04 08:31:34;0.00;0.00;0.62;0.00;0.00;0.62;;;;;10.40;1.00;;;;;;2268424;61;971;-86
2024/02/04 08:34:02;20769.00;0.07;36.60;0.00;0.00;0.62;;;;;10.50;1.00;;;;;;2268386;61;1407;-87
2024/02/04 08:36:30;20024.00;0.07;35.31;0.00;0.00;0.62;;;;;10.40;1.00;;;;;;2268307;61;1253;-89
2024/02/04 08:38:58;0.00;0.00;0.62;0.00;0.00;0.62;;;;;10.40;1.00;;;;;;2268351;61;975;-88
2024/02/04 08:41:25;43753.00;0.15;76.38;0.00;0.00;0.62;;;;;10.60;1.00;;;;;;2268252;61;2230;-87
2024/02/04 08:43:52;104348.00;0.35;181.08;0.00;0.00;0.62;;;;;10.90;1.00;;;;;;2268295;61;2013;-87
2024/02/04 08:46:19;46930.00;0.16;81.88;0.00;0.00;0.62;;;;;11.00;1.00;;;;;;2268381;61;1064;-88
2024/02/04 08:48:46;13812.00;0.05;24.55;0.00;0.00;0.62;;;;;10.80;1.00;;;;;;2268426;61;1067;-89
2024/02/04 08:51:13;10659.00;0.04;19.09;0.00;0.00;0.62;;;;;10.80;1.00;;;;;;2268242;61;1533;-86
2024/02/04 08:53:40;48439.00;0.16;84.49;0.00;0.00;0.62;;;;;10.90;1.00;;;;;;2268307;61;1385;-89
2024/02/04 08:56:09;67147.00;0.22;116.83;0.00;0.00;0.62;;;;;10.80;1.00;;;;;;2268303;61;1608;-88
2024/02/04 08:58:37;220971.00;0.74;382.01;65140.00;0.22;113.36;;;;;11.30;1.00;;;;;;2274143;55;3823;-87
2024/02/04 09:01:04;48528.00;0.16;84.64;0.00;0.00;0.62;;;;;11.40;1.00;;;;;;2271931;61;1700;-87
2024/02/04 09:03:31;0.00;0.00;0.62;0.00;0.00;0.62;;;;;11.30;1.00;;;;;;2272036;61;1915;-86
2024/02/04 09:05:58;17821.00;0.06;31.50;0.00;0.00;0.62;;;;;11.30;1.00;;;;;;2272311;61;1015;-86
2024/02/04 09:08:25;13246.00;0.04;23.57;0.00;0.00;0.62;;;;;11.40;1.00;;;;;;2272229;61;1004;-88
2024/02/04 09:10:52;16630.00;0.06;29.43;0.00;0.00;0.62;;;;;11.60;1.00;;;;;;2272426;61;1082;-88
2024/02/04 09:13:20;0.00;0.00;0.62;0.00;0.00;0.62;;;;;11.90;1.00;;;;;;2272226;61;2020;-87
2024/02/04 09:15:47;0.00;0.00;0.62;0.00;0.00;0.62;;;;;11.70;1.00;;;;;;2272455;61;1008;-85
2024/02/04 09:18:14;223650.00;0.75;386.62;53333.00;0.18;92.95;;;;;11.40;1.00;;;;;;2272252;61;1108;-86
2024/02/04 09:20:41;0.00;0.00;0.62;0.00;0.00;0.62;;;;;11.50;1.00;;;;;;2272236;61;1080;-85
2024/02/04 09:23:08;0.00;0.00;0.62;0.00;0.00;0.62;;;;;11.40;1.00;;;;;;2272207;61;1914;-86
2024/02/04 09:25:35;10373.00;0.03;18.60;0.00;0.00;0.62;;;;;11.50;1.00;;;;;;2272371;61;1150;-88
2024/02/04 09:28:02;70848.00;0.24;123.23;0.00;0.00;0.62;;;;;11.80;1.00;;;;;;2272335;61;899;-88
2024/02/04 09:30:31;75965.00;0.25;132.07;0.00;0.00;0.62;;;;;12.20;1.00;;;;;;2272220;61;917;-88
2024/02/04 09:32:58;0.00;0.00;0.62;0.00;0.00;0.62;;;;;12.50;1.00;;;;;;2272246;61;1262;-88
2024/02/04 09:35:24;95919.00;0.32;166.53;0.00;0.00;0.62;;;;;12.40;1.00;;;;;;2272144;61;1689;-86
2024/02/04 09:37:51;71770.00;0.24;124.82;0.00;0.00;0.62;;;;;12.10;1.00;;;;;;2272243;61;1729;-86
2024/02/04 09:40:19;23514.00;0.08;41.35;0.00;0.00;0.62;;;;;12.20;1.00;;;;;;2272255;61;1109;-88
2024/02/04 09:42:46;11274.00;0.04;20.16;0.00;0.00;0.62;;;;;12.40;1.00;;;;;;2272215;61;1998;-87
2024/02/04 09:45:17;0.00;0.00;0.62;0.00;0.00;0.62;;;;;12.20;1.00;;;;;;2272219;61;1791;-89
2024/02/04 09:47:46;22841.00;0.08;40.19;0.00;0.00;0.62;;;;;12.30;1.00;;;;;;2272036;61;1177;-89
2024/02/04 09:50:13;6736.00;0.02;12.29;0.00;0.00;0.62;;;;;12.30;1.00;;;;;;2272161;61;1562;-87
2024/02/04 09:52:45;155757.00;0.52;269.73;10271.00;0.03;18.42;;;;;12.20;1.00;;;;;;2272124;61;1671;-87
2024/02/04 09:55:16;124252.00;0.41;215.42;25428.00;0.08;44.67;;;;;12.20;1.00;;;;;;2272279;61;937;-87
2024/02/04 09:57:43;0.00;0.00;0.62;0.00;0.00;0.62;;;;;12.40;1.00;;;;;;2272605;61;1026;-88
2024/02/04 10:00:11;35543.00;0.12;62.18;0.00;0.00;0.62;;;;;12.40;1.00;;;;;;2272701;61;1049;-87
2024/02/04 10:02:39;0.00;0.00;0.62;0.00;0.00;0.62;;;;;12.80;1.00;;;;;;2272862;61;1992;-87
2024/02/04 10:05:09;99280.00;0.33;172.33;0.00;0.00;0.62;;;;;12.50;1.00;;;;;;2273009;61;930;-88
2024/02/04 10:07:36;9394.00;0.03;16.90;0.00;0.00;0.62;;;;;12.60;1.00;;;;;;2273009;61;1279;-88
2024/02/04 10:10:03;1625.00;0.01;3.44;0.00;0.00;0.62;;;;;12.60;1.00;;;;;;2272909;61;1108;-88
2024/02/04 10:12:30;20467.00;0.07;36.08;0.00;0.00;0.62;;;;;12.50;1.00;;;;;;2272884;61;1362;-86
2024/02/04 10:14:57;98387.00;0.33;170.79;0.00;0.00;0.62;;;;;12.00;1.00;;;;;;2272892;61;1076;-87
2024/02/04 10:17:24;14218.00;0.05;25.26;0.00;0.00;0.62;;;;;11.80;1.00;;;;;;2272768;61;1007;-87
2024/02/04 10:19:51;3104.00;0.01;6.00;0.00;0.00;0.62;;;;;11.70;1.00;;;;;;2272805;61;992;-87
2024/02/04 10:22:20;7993.00;0.03;14.47;0.00;0.00;0.62;;;;;12.10;1.00;;;;;;2272822;61;1258;-88
2024/02/04 10:24:48;23469.00;0.08;41.28;0.00;0.00;0.62;;;;;12.30;1.00;;;;;;2272786;61;2003;-87
2024/02/04 10:27:16;0.00;0.00;0.62;0.00;0.00;0.62;;;;;12.50;1.00;;;;;;2272897;61;1072;-89
2024/02/04 10:29:43;9852.00;0.03;17.69;0.00;0.00;0.62;;;;;12.10;1.00;;;;;;2272810;61;959;-86
2024/02/04 10:32:09;11379.00;0.04;20.34;0.00;0.00;0.62;;;;;12.00;1.00;;;;;;2272836;61;1242;-88
2024/02/04 10:34:38;63172.00;0.21;109.96;0.00;0.00;0.62;;;;;12.10;1.00;;;;;;2272762;61;1015;-87
2024/02/04 10:37:05;7389.00;0.02;13.43;0.00;0.00;0.62;;;;;12.80;1.00;;;;;;2272848;61;2153;-88
2024/02/04 10:39:34;143705.00;0.48;248.96;0.00;0.00;0.62;;;;;13.00;1.00;;;;;;2272789;61;1018;-87
2024/02/04 10:42:04;287148.00;0.96;495.83;9833.00;0.03;17.66;;;;;13.00;1.00;;;;;;2272703;61;1282;-88
2024/02/04 10:44:37;22884.00;0.08;40.26;0.00;0.00;0.62;;;;;12.90;1.00;;;;;;2272720;61;1931;-87
2024/02/04 10:47:07;24838.00;0.08;43.65;0.00;0.00;0.62;;;;;12.80;1.00;;;;;;2272681;61;2379;-88
2024/02/04 10:49:38;160250.00;0.53;277.47;0.00;0.00;0.62;;;;;12.80;1.00;;;;;;2272773;61;1023;-87
2024/02/04 10:52:08;10317.00;0.03;18.50;0.00;0.00;0.62;;;;;12.80;1.00;;;;;;2272851;61;1358;-87
2024/02/04 10:54:39;40662.00;0.14;71.03;0.00;0.00;0.62;;;;;12.70;1.00;;;;;;2272893;61;1138;-86
2024/02/04 10:57:09;0.00;0.00;0.62;0.00;0.00;0.62;;;;;12.50;1.00;;;;;;2272999;61;1104;-87
2024/02/04 10:59:37;25211.00;0.08;44.29;0.00;0.00;0.62;;;;;12.30;1.00;;;;;;2272829;61;1053;-87
2024/02/04 11:02:07;26473.00;0.09;46.48;0.00;0.00;0.62;;;;;12.80;1.00;;;;;;2272745;61;1676;-87
2024/02/04 11:04:35;50824.00;0.17;88.61;0.00;0.00;0.62;;;;;13.40;1.00;;;;;;2272579;61;2004;-87
2024/02/04 11:07:04;42719.00;0.14;74.59;0.00;0.00;0.62;;;;;13.30;1.00;;;;;;2272690;61;1109;-87
2024/02/04 11:09:31;17232.00;0.06;30.48;0.00;0.00;0.62;;;;;13.10;1.00;;;;;;2272501;61;1566;-87
2024/02/04 11:12:02;32391.00;0.11;56.72;0.00;0.00;0.62;;;;;12.90;1.00;;;;;;2272480;61;1298;-88
2024/02/04 11:14:32;33397.00;0.11;58.46;0.00;0.00;0.62;;;;;12.50;1.00;;;;;;2272524;61;1033;-87
2024/02/04 11:17:21;74776.00;0.25;130.01;0.00;0.00;0.62;;;;;12.50;1.00;;;;;;2272608;61;955;-88
2024/02/04 11:20:03;28471.00;0.09;49.94;0.00;0.00;0.62;;;;;12.80;1.00;;;;;;2272524;61;1706;-88